Loda, Illinois
Current Conditions -  °F | °C
As of 10:50 PM on Sunday 21 Dec 2014 (Local Time) from KTIP Reporting Station
Haze Haze  
Wind Chill: 23°   Ceiling: Unl
Heat Index: 32°   Visibility: 5mi
Dew Point: 30°   Wind: 12mph
Humidity: 92%   Direction: 130°SE
Pressure: 30.01"   Gusts: NA
Location:  40.52°N, 88.07°W
Report Text: KTIP 220450Z AUTO 13010KT 5SM BR CLR 00/M01 A3001 RMK AO2 T00001012
Loading
Personal Weather Stations






























Interactive Weather Map New forecast layout! Learn more

10-Day Weather Forecast

Advertisements
Track Severe Weather on mobile